createdAt,value
2022-11-15T00:00:57.471Z,62.42
2022-11-15T00:03:26.126Z,58.75
2022-11-15T00:05:53.250Z,59.20
2022-11-15T00:08:20.089Z,59.17
2022-11-15T00:10:57.393Z,56.67
2022-11-15T00:13:24.619Z,56.67
2022-11-15T00:15:51.459Z,59.63
2022-11-15T00:18:19.103Z,54.17
2022-11-15T00:20:46.040Z,54.60
2022-11-15T00:23:12.788Z,58.20
2022-11-15T00:25:39.895Z,57.58
2022-11-15T00:28:06.541Z,55.40
2022-11-15T00:30:33.665Z,57.92
2022-11-15T00:33:07.298Z,59.85
2022-11-15T00:35:35.397Z,60.75
2022-11-15T00:38:03.675Z,65.53
2022-11-15T00:40:30.787Z,62.17
2022-11-15T00:42:58.281Z,60.75
2022-11-15T00:45:25.685Z,56.72
2022-11-15T00:47:53.201Z,59.13
2022-11-15T00:50:20.216Z,53.55
2022-11-15T00:52:47.124Z,53.95
2022-11-15T00:55:17.922Z,51.22
2022-11-15T00:57:45.004Z,48.95
2022-11-15T01:00:12.635Z,49.53
2022-11-15T01:02:39.822Z,51.33
2022-11-15T01:05:07.323Z,52.50
2022-11-15T01:07:34.382Z,51.03
2022-11-15T01:10:01.491Z,49.95
2022-11-15T01:12:28.299Z,53.03
2022-11-15T01:14:54.909Z,50.45
2022-11-15T01:17:21.648Z,50.97
2022-11-15T01:19:48.592Z,49.20
2022-11-15T01:22:15.250Z,50.45
2022-11-15T01:24:42.132Z,52.53
2022-11-15T01:27:09.082Z,51.88
2022-11-15T01:29:35.929Z,49.10
2022-11-15T01:32:03.501Z,47.67
2022-11-15T01:34:30.240Z,51.92
2022-11-15T01:36:57.042Z,54.05
2022-11-15T01:39:23.878Z,49.90
2022-11-15T01:41:50.906Z,51.38
2022-11-15T01:44:35.835Z,52.97
2022-11-15T01:47:06.999Z,54.60
2022-11-15T01:49:36.353Z,52.22
2022-11-15T01:52:08.414Z,53.63
2022-11-15T01:54:35.357Z,49.05
2022-11-15T01:57:10.477Z,50.55
2022-11-15T01:59:41.848Z,49.67
2022-11-15T02:02:09.114Z,51.63
2022-11-15T02:04:45.032Z,52.60
2022-11-15T02:07:15.836Z,50.47
2022-11-15T02:09:43.880Z,51.05
2022-11-15T02:12:12.470Z,54.88
2022-11-15T02:14:46.090Z,53.80
2022-11-15T02:17:28.042Z,52.05
2022-11-15T02:20:20.650Z,54.47
2022-11-15T02:25:32.705Z,50.67
2022-11-15T02:28:19.001Z,50.83
2022-11-15T02:30:58.586Z,51.95
2022-11-15T02:33:37.345Z,50.20
2022-11-15T02:36:13.153Z,48.90
2022-11-15T02:38:59.889Z,47.20
2022-11-15T02:41:39.702Z,47.67
2022-11-15T02:44:18.477Z,45.00
2022-11-15T02:47:16.098Z,47.08
2022-11-15T02:49:52.392Z,48.67
2022-11-15T02:52:22.481Z,47.20
2022-11-15T02:55:00.219Z,46.75
2022-11-15T02:57:52.345Z,48.40
2022-11-15T03:00:21.215Z,51.17
2022-11-15T03:03:29.685Z,51.08
2022-11-15T03:06:22.000Z,51.55
2022-11-15T03:09:12.397Z,52.33
2022-11-15T03:11:45.389Z,55.78
2022-11-15T03:14:36.713Z,74.85
2022-11-15T03:17:18.008Z,84.13
2022-11-15T03:19:48.230Z,61.72
2022-11-15T03:22:22.173Z,59.95
2022-11-15T03:24:55.122Z,54.80
2022-11-15T03:27:26.377Z,60.63
2022-11-15T03:30:01.683Z,60.20
2022-11-15T03:32:31.779Z,63.60
2022-11-15T03:35:07.517Z,66.70
2022-11-15T03:37:56.096Z,64.05
2022-11-15T03:40:30.335Z,66.88
2022-11-15T03:43:16.358Z,68.45
2022-11-15T03:45:51.630Z,66.28
2022-11-15T03:48:24.031Z,64.22
2022-11-15T03:50:51.254Z,59.30
2022-11-15T03:53:18.095Z,58.40
2022-11-15T03:55:45.058Z,56.85
2022-11-15T03:58:11.999Z,57.67
2022-11-15T04:00:38.677Z,55.83
2022-11-15T04:03:05.368Z,59.78
2022-11-15T04:05:32.079Z,56.95
2022-11-15T04:07:59.793Z,56.03
2022-11-15T04:10:26.850Z,55.88
2022-11-15T04:12:54.032Z,54.78
2022-11-15T04:15:25.027Z,57.63
2022-11-15T04:17:54.093Z,62.85
2022-11-15T04:20:44.042Z,65.20
2022-11-15T04:23:35.073Z,60.53
2022-11-15T04:26:06.666Z,59.22
2022-11-15T04:28:33.545Z,59.93
2022-11-15T04:31:00.520Z,61.20
2022-11-15T04:33:27.288Z,67.75
2022-11-15T04:36:12.543Z,67.38
2022-11-15T04:38:39.151Z,64.55
2022-11-15T04:41:06.069Z,65.03
2022-11-15T04:43:33.303Z,64.55
2022-11-15T04:46:00.185Z,66.35
2022-11-15T04:48:26.968Z,68.32
2022-11-15T04:50:53.596Z,59.15
2022-11-15T04:53:20.385Z,61.47
2022-11-15T04:55:47.733Z,62.60
2022-11-15T04:58:15.008Z,58.22
2022-11-15T05:00:42.044Z,56.67
2022-11-15T05:03:29.501Z,55.30
2022-11-15T05:05:56.564Z,53.42
2022-11-15T05:08:23.407Z,51.78
2022-11-15T05:10:50.049Z,47.97
2022-11-15T05:13:16.794Z,44.78
2022-11-15T05:15:43.898Z,43.63
2022-11-15T05:18:10.641Z,46.17
2022-11-15T05:20:37.414Z,46.17
2022-11-15T05:23:04.082Z,42.72
2022-11-15T05:25:30.953Z,48.45
2022-11-15T05:27:57.751Z,50.90
2022-11-15T05:30:24.429Z,49.13
2022-11-15T05:32:51.577Z,49.45
2022-11-15T05:35:30.730Z,49.90
2022-11-15T05:37:57.633Z,53.95
2022-11-15T05:40:25.140Z,43.20
2022-11-15T05:42:51.776Z,51.60
2022-11-15T05:45:23.895Z,53.97
2022-11-15T05:47:55.245Z,53.00
2022-11-15T05:50:22.418Z,58.53
2022-11-15T05:52:49.603Z,57.35
2022-11-15T05:55:16.728Z,58.58
2022-11-15T05:57:43.492Z,54.10
2022-11-15T06:00:10.636Z,49.65
2022-11-15T06:02:37.429Z,50.78
2022-11-15T06:05:04.465Z,48.35
2022-11-15T06:07:31.954Z,51.10
2022-11-15T06:09:58.694Z,48.28
2022-11-15T06:12:25.593Z,48.63
2022-11-15T06:14:52.366Z,46.30
2022-11-15T06:17:19.044Z,54.08
2022-11-15T06:19:45.879Z,50.88
2022-11-15T06:22:12.784Z,52.85
2022-11-15T06:24:39.549Z,54.17
2022-11-15T06:27:06.302Z,54.42
2022-11-15T06:29:33.287Z,52.33
2022-11-15T06:32:00.098Z,58.35
2022-11-15T06:34:26.864Z,66.25
2022-11-15T06:36:54.187Z,52.22
2022-11-15T06:39:21.482Z,53.95
2022-11-15T06:41:48.123Z,50.67
2022-11-15T06:44:14.876Z,53.70
2022-11-15T06:46:41.516Z,56.00
2022-11-15T06:49:09.782Z,57.10
2022-11-15T06:51:36.803Z,53.22
2022-11-15T06:54:03.716Z,56.88
2022-11-15T06:56:30.453Z,54.63
2022-11-15T06:58:57.131Z,51.10
2022-11-15T07:01:23.911Z,59.28
2022-11-15T07:03:50.613Z,55.50
2022-11-15T07:06:17.692Z,55.75
2022-11-15T07:08:44.319Z,48.67
2022-11-15T07:11:11.003Z,51.53
2022-11-15T07:13:38.404Z,53.40
2022-11-15T07:16:07.584Z,56.20
2022-11-15T07:18:39.464Z,39.08
2022-11-15T07:21:08.873Z,44.70
2022-11-15T07:23:38.661Z,43.72
2022-11-15T07:26:06.016Z,43.15
2022-11-15T07:28:32.907Z,42.70
2022-11-15T07:31:02.790Z,46.15
2022-11-15T07:33:29.908Z,41.28
2022-11-15T07:36:02.655Z,38.95
2022-11-15T07:38:30.320Z,41.83
2022-11-15T07:41:03.187Z,42.45
2022-11-15T07:43:31.048Z,41.83
2022-11-15T07:45:59.514Z,45.15
2022-11-15T07:48:35.616Z,46.25
2022-11-15T07:51:14.292Z,46.53
2022-11-15T07:53:41.863Z,47.40
2022-11-15T07:56:09.266Z,48.03
2022-11-15T07:58:36.295Z,48.88
2022-11-15T08:01:07.834Z,48.50
2022-11-15T08:03:35.242Z,48.67
2022-11-15T08:06:02.219Z,47.35
2022-11-15T08:08:28.994Z,44.03
2022-11-15T08:10:55.972Z,43.10
2022-11-15T08:13:22.872Z,45.85
2022-11-15T08:15:52.245Z,47.40
2022-11-15T08:18:23.093Z,47.65
2022-11-15T08:20:49.801Z,45.75
2022-11-15T08:23:16.452Z,46.58
2022-11-15T08:25:43.213Z,46.60
2022-11-15T08:28:11.763Z,46.80
2022-11-15T08:30:43.155Z,45.05
2022-11-15T08:33:14.946Z,43.17
2022-11-15T08:35:43.341Z,43.83
2022-11-15T08:38:10.506Z,45.33
2022-11-15T08:40:37.911Z,44.65
2022-11-15T08:43:04.896Z,45.33
2022-11-15T08:45:32.614Z,45.72
2022-11-15T08:48:01.422Z,41.35
2022-11-15T08:50:28.070Z,42.50
2022-11-15T08:52:54.899Z,45.92
2022-11-15T08:55:24.525Z,49.22
2022-11-15T08:57:51.861Z,51.30
2022-11-15T09:00:20.985Z,49.90
2022-11-15T09:02:47.695Z,50.35
2022-11-15T09:05:14.478Z,49.53
2022-11-15T09:07:41.212Z,55.17
2022-11-15T09:10:08.282Z,53.88
2022-11-15T09:12:34.996Z,59.28
2022-11-15T09:15:01.849Z,55.00
2022-11-15T09:17:28.554Z,59.95
2022-11-15T09:19:55.280Z,58.20
2022-11-15T09:22:22.135Z,62.28
2022-11-15T09:24:48.820Z,64.03
2022-11-15T09:29:59.335Z,61.85
2022-11-15T09:32:36.292Z,63.00
2022-11-15T09:35:05.823Z,77.78
2022-11-15T09:37:33.383Z,70.55
2022-11-15T09:40:00.000Z,67.90
2022-11-15T09:42:45.369Z,67.55
2022-11-15T09:45:21.560Z,68.70
2022-11-15T09:48:32.967Z,67.35
2022-11-15T09:50:59.997Z,70.95
2022-11-15T09:53:57.527Z,71.03
2022-11-15T09:56:22.638Z,72.57
2022-11-15T09:59:17.694Z,71.43
2022-11-15T10:02:07.230Z,76.03
2022-11-15T10:04:33.947Z,74.13
2022-11-15T10:07:14.592Z,73.63
2022-11-15T10:09:48.783Z,73.28
2022-11-15T10:12:16.838Z,70.45
2022-11-15T10:14:44.328Z,71.68
2022-11-15T10:17:26.701Z,70.95
2022-11-15T10:20:17.038Z,76.60
2022-11-15T10:22:52.818Z,71.32
2022-11-15T10:25:29.035Z,69.53
2022-11-15T10:28:03.456Z,69.45
2022-11-15T10:30:41.684Z,68.15
2022-11-15T10:33:22.218Z,67.20
2022-11-15T10:35:48.980Z,69.85
2022-11-15T10:38:15.829Z,69.88
2022-11-15T10:40:44.685Z,67.15
2022-11-15T10:43:11.491Z,69.00
2022-11-15T10:45:39.619Z,69.43
2022-11-15T10:48:15.481Z,69.97
2022-11-15T10:50:44.204Z,68.90
2022-11-15T10:53:32.732Z,67.88
2022-11-15T10:56:05.289Z,66.82
2022-11-15T10:58:51.009Z,64.57
2022-11-15T11:01:24.253Z,63.28
2022-11-15T11:04:09.330Z,62.83
2022-11-15T11:06:57.779Z,60.97
2022-11-15T11:09:36.540Z,58.65
2022-11-15T11:12:05.457Z,55.80
2022-11-15T11:14:35.255Z,59.55
2022-11-15T11:17:18.980Z,57.70
2022-11-15T11:20:01.639Z,55.80
2022-11-15T11:22:56.212Z,53.25
2022-11-15T11:25:31.476Z,53.95
2022-11-15T11:28:14.509Z,55.72
2022-11-15T11:30:55.832Z,53.13
2022-11-15T11:33:44.638Z,55.75
2022-11-15T11:36:17.942Z,54.47
2022-11-15T11:39:18.333Z,52.92
2022-11-15T11:41:51.048Z,51.97
2022-11-15T11:44:46.464Z,52.50
2022-11-15T11:47:22.109Z,52.80
2022-11-15T11:50:01.071Z,53.28
2022-11-15T11:52:34.366Z,52.25
2022-11-15T11:55:06.742Z,53.83
2022-11-15T11:57:50.549Z,58.78
2022-11-15T12:00:21.582Z,55.17
2022-11-15T12:02:57.344Z,56.22
2022-11-15T12:05:33.771Z,54.50
2022-11-15T12:08:21.524Z,53.97
2022-11-15T12:11:09.587Z,56.78
2022-11-15T12:13:38.199Z,52.97
2022-11-15T12:16:17.396Z,56.10
2022-11-15T12:18:54.256Z,54.35
2022-11-15T12:21:40.598Z,53.65
2022-11-15T12:24:15.647Z,54.42
2022-11-15T12:26:52.108Z,55.63
2022-11-15T12:29:29.177Z,54.22
2022-11-15T12:31:59.369Z,53.15
2022-11-15T12:34:29.083Z,50.70
2022-11-15T12:36:57.189Z,53.65
2022-11-15T12:40:04.543Z,52.28
2022-11-15T12:42:31.219Z,51.85
2022-11-15T12:45:00.284Z,49.63
2022-11-15T12:47:28.033Z,50.80
2022-11-15T12:49:54.803Z,50.97
2022-11-15T12:52:21.675Z,48.78
2022-11-15T12:54:57.208Z,48.80
2022-11-15T12:57:33.302Z,48.78
2022-11-15T13:00:03.873Z,48.95
2022-11-15T13:02:46.253Z,44.70
2022-11-15T13:05:19.390Z,48.80
2022-11-15T13:07:46.049Z,51.65
2022-11-15T13:10:30.793Z,52.03
2022-11-15T13:13:05.710Z,48.92
2022-11-15T13:15:57.265Z,48.60
2022-11-15T13:18:41.247Z,49.65
2022-11-15T13:21:42.289Z,49.05
2022-11-15T13:24:16.814Z,46.58
2022-11-15T13:26:44.045Z,47.08
2022-11-15T13:29:17.561Z,47.47
2022-11-15T13:31:45.912Z,48.88
2022-11-15T13:37:21.884Z,46.20
2022-11-15T13:39:50.439Z,44.50
2022-11-15T13:42:20.631Z,42.90
2022-11-15T13:45:05.751Z,45.40
2022-11-15T13:47:33.398Z,44.92
2022-11-15T13:50:09.647Z,42.75
2022-11-15T13:52:41.705Z,42.33
2022-11-15T13:55:22.562Z,44.80
2022-11-15T13:58:07.139Z,47.20
2022-11-15T14:00:45.919Z,47.78
2022-11-15T14:03:31.243Z,46.53
2022-11-15T14:06:13.358Z,45.05
2022-11-15T14:09:12.456Z,43.88
2022-11-15T14:11:54.010Z,44.47
2022-11-15T14:14:23.351Z,43.65
2022-11-15T14:16:53.408Z,44.05
2022-11-15T14:19:25.919Z,45.25
2022-11-15T14:22:14.529Z,46.90
2022-11-15T14:24:44.017Z,45.97
2022-11-15T14:27:17.902Z,45.40
2022-11-15T14:29:44.542Z,48.20
2022-11-15T14:32:23.576Z,50.10
2022-11-15T14:34:55.880Z,61.05
2022-11-15T14:39:51.135Z,78.65
2022-11-15T14:42:19.057Z,50.42
2022-11-15T14:44:46.399Z,48.58
2022-11-15T14:47:13.898Z,49.03
2022-11-15T14:49:40.998Z,50.75
2022-11-15T14:52:36.897Z,49.50
2022-11-15T14:55:12.967Z,56.40
2022-11-15T14:57:39.723Z,55.03
2022-11-15T15:00:07.184Z,49.75
2022-11-15T15:02:33.889Z,50.65
2022-11-15T15:05:03.380Z,53.53
2022-11-15T15:07:30.470Z,50.17
2022-11-15T15:10:17.760Z,50.03
2022-11-15T15:12:44.808Z,48.67
2022-11-15T15:15:25.216Z,50.78
2022-11-15T15:17:51.982Z,52.13
2022-11-15T15:20:18.907Z,51.03
2022-11-15T15:22:46.162Z,55.97
2022-11-15T15:25:22.949Z,52.85
2022-11-15T15:27:50.547Z,52.85
2022-11-15T15:30:17.664Z,52.45
2022-11-15T15:32:45.410Z,49.40
2022-11-15T15:35:16.614Z,50.63
2022-11-15T15:37:45.354Z,54.88
2022-11-15T15:40:20.934Z,50.70
2022-11-15T15:42:48.200Z,49.47
2022-11-15T15:45:16.367Z,62.70
2022-11-15T15:47:44.124Z,57.03
2022-11-15T15:50:33.564Z,48.08
2022-11-15T15:53:04.398Z,49.97
2022-11-15T15:55:31.443Z,48.92
2022-11-15T15:57:58.620Z,50.35
2022-11-15T16:00:27.533Z,53.55
2022-11-15T16:02:54.847Z,51.40
2022-11-15T16:05:22.330Z,52.33
2022-11-15T16:07:49.581Z,58.97
2022-11-15T16:10:28.187Z,74.20
2022-11-15T16:12:56.678Z,65.50
2022-11-15T16:15:25.720Z,68.53
2022-11-15T16:17:58.413Z,65.05
2022-11-15T16:20:32.342Z,62.97
2022-11-15T16:23:04.326Z,61.17
2022-11-15T16:25:56.946Z,59.90
2022-11-15T16:28:32.609Z,60.28
2022-11-15T16:31:05.797Z,58.30
2022-11-15T16:33:33.990Z,60.95
2022-11-15T16:36:01.477Z,62.70
2022-11-15T16:38:28.160Z,59.88
2022-11-15T16:40:54.916Z,61.63
2022-11-15T16:43:21.792Z,61.47
2022-11-15T16:45:50.816Z,60.00
2022-11-15T16:48:26.227Z,61.58
2022-11-15T16:50:57.688Z,60.60
2022-11-15T16:53:25.164Z,59.00
2022-11-15T16:55:52.140Z,59.53
2022-11-15T16:58:18.881Z,59.40
2022-11-15T17:00:46.211Z,64.68
2022-11-15T17:03:13.037Z,69.95
2022-11-15T17:05:39.832Z,66.97
2022-11-15T17:08:07.182Z,64.95
2022-11-15T17:10:34.564Z,63.17
2022-11-15T17:13:01.559Z,64.03
2022-11-15T17:15:28.214Z,64.82
2022-11-15T17:17:55.573Z,65.40
2022-11-15T17:20:24.140Z,59.78
2022-11-15T17:22:51.002Z,62.95
2022-11-15T17:25:17.755Z,61.70
2022-11-15T17:27:44.540Z,62.72
2022-11-15T17:30:15.523Z,62.55
2022-11-15T17:32:43.175Z,62.47
2022-11-15T17:35:15.332Z,60.10
2022-11-15T17:37:43.022Z,62.80
2022-11-15T17:40:10.638Z,63.75
2022-11-15T17:42:37.306Z,62.22
2022-11-15T17:45:09.526Z,71.00
2022-11-15T17:47:36.934Z,75.57
2022-11-15T17:50:03.842Z,74.70
2022-11-15T17:52:30.821Z,67.75
2022-11-15T17:54:57.503Z,79.90
2022-11-15T17:57:24.336Z,85.35
2022-11-15T17:59:51.015Z,130.93
2022-11-15T18:02:17.717Z,128.90
2022-11-15T18:04:45.347Z,124.50
2022-11-15T18:07:14.449Z,119.93
2022-11-15T18:09:43.864Z,110.90
2022-11-15T18:12:11.783Z,110.78
2022-11-15T18:14:38.524Z,114.72
2022-11-15T18:17:05.218Z,114.22
2022-11-15T18:19:32.558Z,107.00
2022-11-15T18:22:01.007Z,92.72
2022-11-15T18:24:33.537Z,98.65
2022-11-15T18:27:01.389Z,109.22
2022-11-15T18:29:28.411Z,110.50
2022-11-15T18:31:56.047Z,113.63
2022-11-15T18:34:25.500Z,106.22
2022-11-15T18:36:53.038Z,105.43
2022-11-15T18:39:20.496Z,109.53
2022-11-15T18:41:47.940Z,101.28
2022-11-15T18:44:15.451Z,101.20
2022-11-15T18:46:42.773Z,105.97
2022-11-15T18:49:10.810Z,98.22
2022-11-15T18:51:41.683Z,107.22
2022-11-15T18:54:11.152Z,115.68
2022-11-15T18:56:38.656Z,104.55
2022-11-15T18:59:06.352Z,130.88
2022-11-15T19:01:36.626Z,132.93
2022-11-15T19:04:08.096Z,133.63
2022-11-15T19:06:38.553Z,121.28
2022-11-15T19:09:06.090Z,120.28
2022-11-15T19:11:35.971Z,112.00
2022-11-15T19:14:12.820Z,100.05
2022-11-15T19:16:50.766Z,106.43
2022-11-15T19:19:19.828Z,95.60
2022-11-15T19:21:47.333Z,93.40
2022-11-15T19:24:14.641Z,95.90
2022-11-15T19:26:42.242Z,90.85
2022-11-15T19:29:14.173Z,89.10
2022-11-15T19:31:41.650Z,85.57
2022-11-15T19:34:09.007Z,98.05
2022-11-15T19:36:41.337Z,114.07
2022-11-15T19:41:38.869Z,113.28
2022-11-15T19:44:06.697Z,106.25
2022-11-15T19:46:33.902Z,117.38
2022-11-15T19:49:00.706Z,119.40
2022-11-15T19:51:30.310Z,114.35
2022-11-15T19:54:06.639Z,107.68
2022-11-15T19:56:34.890Z,107.72
2022-11-15T19:59:02.548Z,99.00
2022-11-15T20:01:31.600Z,97.30
2022-11-15T20:03:59.757Z,86.15
2022-11-15T20:06:29.765Z,79.68
2022-11-15T20:08:58.401Z,78.60
2022-11-15T20:11:25.936Z,75.05
2022-11-15T20:13:57.191Z,75.90
2022-11-15T20:16:23.970Z,76.53
2022-11-15T20:18:51.573Z,74.05
2022-11-15T20:21:18.834Z,72.38
2022-11-15T20:23:47.266Z,72.70
2022-11-15T20:26:14.951Z,75.45
2022-11-15T20:28:41.690Z,74.75
2022-11-15T20:31:10.576Z,76.18
2022-11-15T20:33:37.219Z,76.78
2022-11-15T20:36:06.288Z,76.28
2022-11-15T20:38:34.696Z,75.28
2022-11-15T20:41:02.129Z,76.97
2022-11-15T20:43:31.285Z,78.95
2022-11-15T20:45:58.376Z,74.93
2022-11-15T20:48:25.221Z,72.93
2022-11-15T20:51:02.538Z,73.60
2022-11-15T20:53:31.595Z,71.82
2022-11-15T20:56:05.546Z,74.78
2022-11-15T20:58:32.972Z,74.20
2022-11-15T21:01:00.013Z,77.55
2022-11-15T21:03:26.800Z,78.78
2022-11-15T21:05:54.326Z,77.65
2022-11-15T21:08:21.126Z,79.57
2022-11-15T21:11:09.728Z,75.75
2022-11-15T21:13:37.793Z,78.43
2022-11-15T21:16:05.652Z,75.38
2022-11-15T21:18:33.356Z,77.90
2022-11-15T21:21:05.509Z,76.75
2022-11-15T21:23:32.717Z,77.88
2022-11-15T21:25:59.924Z,78.85
2022-11-15T21:28:26.657Z,83.25
2022-11-15T21:30:57.994Z,88.05
2022-11-15T21:33:27.423Z,102.27
2022-11-15T21:35:57.613Z,99.13
2022-11-15T21:38:24.952Z,99.55
2022-11-15T21:40:53.206Z,90.47
2022-11-15T21:43:20.954Z,107.75
2022-11-15T21:46:01.204Z,96.75
2022-11-15T21:48:29.619Z,90.50
2022-11-15T21:51:01.662Z,95.13
2022-11-15T21:53:29.308Z,92.28
2022-11-15T21:55:56.047Z,88.10
2022-11-15T21:58:22.942Z,89.78
2022-11-15T22:01:08.712Z,91.93
2022-11-15T22:03:36.047Z,89.68
2022-11-15T22:06:02.879Z,90.68
2022-11-15T22:08:31.393Z,86.03
2022-11-15T22:10:58.531Z,83.43
2022-11-15T22:13:26.054Z,87.68
2022-11-15T22:15:54.198Z,85.88
2022-11-15T22:18:32.068Z,83.78
2022-11-15T22:21:01.627Z,82.88
2022-11-15T22:23:30.073Z,84.70
2022-11-15T22:25:57.072Z,90.60
2022-11-15T22:28:24.466Z,87.22
2022-11-15T22:30:53.235Z,86.82
2022-11-15T22:33:22.995Z,81.80
2022-11-15T22:35:50.093Z,79.68
2022-11-15T22:38:17.263Z,81.38
2022-11-15T22:40:44.330Z,78.38
2022-11-15T22:43:13.161Z,77.38
2022-11-15T22:45:49.557Z,76.65
2022-11-15T22:48:16.700Z,76.72
2022-11-15T22:50:44.048Z,80.22
2022-11-15T22:53:10.929Z,82.82
2022-11-15T22:55:44.512Z,80.47
2022-11-15T22:58:11.252Z,79.22
2022-11-15T23:00:37.942Z,79.35
2022-11-15T23:03:05.321Z,78.50
2022-11-15T23:05:32.173Z,95.32
2022-11-15T23:07:58.981Z,93.28
2022-11-15T23:10:44.053Z,90.35
2022-11-15T23:13:18.962Z,88.47
2022-11-15T23:16:07.633Z,87.63
2022-11-15T23:18:36.051Z,81.30
2022-11-15T23:21:10.336Z,81.78
2022-11-15T23:23:37.716Z,81.20
2022-11-15T23:26:04.872Z,81.22
2022-11-15T23:28:36.040Z,81.68
2022-11-15T23:31:26.348Z,83.73
2022-11-15T23:33:58.878Z,85.40
2022-11-15T23:36:27.357Z,83.82
2022-11-15T23:38:54.050Z,84.82
2022-11-15T23:41:21.734Z,84.28
2022-11-15T23:43:48.387Z,84.65
2022-11-15T23:46:15.099Z,83.68
2022-11-15T23:48:41.960Z,83.18
2022-11-15T23:51:09.179Z,84.80
2022-11-15T23:53:36.340Z,90.28
2022-11-15T23:56:17.093Z,85.80
2022-11-15T23:58:44.648Z,90.00
